Royal Melbourne — WDC2865 — position and weather

sailwx.info

Track history (hours):
 
Tides and Currents Weather Stations Pressure Air Temp Water Temp Dewpoint Dewpoint Depression Visibility Wind Speed Wind Dir Waves Ship Positions

Royal Melbourne

Owner: Harley Marine Services, Inc, Seattle, WA. More information available from US FCC via Universal Licensing System and Coast Guard Vessel Documentation Center.

Last reported at 2014-Oct-26 04:34 UTC. Time now 2014-Oct-26 05:16 UTC.
Position N 37°48' W 122°17'.

Length 30 m; draft 2 m.

Type: Tug. MMSI: 366998830.

Date/timePositionNaut miles runAvg speedWind from/ knotsBaromVisibWave heightAir tempDewpointWater temp
2014-Oct-26 04:34N 37°48' W 122°17'0 0.0
2014-Oct-26 03:34N 37°48' W 122°17'0 0.0
2014-Oct-26 02:33N 37°48' W 122°17'0 0.0
2014-Oct-26 01:33N 37°48' W 122°17'0 0.0
2014-Oct-26 00:33N 37°48' W 122°17'0 0.0
2014-Oct-25 23:33N 37°48' W 122°17'0 0.0
2014-Oct-25 22:33N 37°48' W 122°17'4 3.6
2014-Oct-25 21:33N 37°48' W 122°21'2 2.0
2014-Oct-25 20:31N 37°48' W 122°24'0 0.0
2014-Oct-25 19:31N 37°48' W 122°24'0 0.0
2014-Oct-25 18:31N 37°48' W 122°24'0 0.0
2014-Oct-25 17:33N 37°48' W 122°24'2 1.6
2014-Oct-25 16:33N 37°48' W 122°22'4 3.8
2014-Oct-25 15:31N 37°48' W 122°17'0 0.0
2014-Oct-25 14:31N 37°48' W 122°17'0 0.0
2014-Oct-25 13:31N 37°48' W 122°17'0 0.0
2014-Oct-25 12:31N 37°48' W 122°17'0 0.0
2014-Oct-25 11:31N 37°48' W 122°17'0 0.0
2014-Oct-25 10:31N 37°48' W 122°17'0 0.0
2014-Oct-25 09:34N 37°48' W 122°17'3 3.3
2014-Oct-25 08:34N 37°46' W 122°20'0 0.3
2014-Oct-25 07:32N 37°45' W 122°20'0 0.0
2014-Oct-25 06:32N 37°45' W 122°20'0 0.0
2014-Oct-25 05:33N 37°45' W 122°20'1 0.6
2014-Oct-25 04:33N 37°45' W 122°20'0 0.2
2014-Oct-25 03:34N 37°45' W 122°20'0 0.0
2014-Oct-25 02:34N 37°45' W 122°20'4 3.5
2014-Oct-25 01:34N 37°48' W 122°17'0 0.1
2014-Oct-25 00:33N 37°48' W 122°17'0 0.0
2014-Oct-24 23:33N 37°48' W 122°17'0 0.2
2014-Oct-24 22:33N 37°48' W 122°17'6 6.1
2014-Oct-24 21:33N 37°51' W 122°23'4 3.7
2014-Oct-24 20:32N 37°55' W 122°22'0 0.0
2014-Oct-24 19:32N 37°55' W 122°22'0 0.0
2014-Oct-24 18:32N 37°55' W 122°22'0 0.0
2014-Oct-24 17:32N 37°55' W 122°22'0 0.0
2014-Oct-24 16:32N 37°55' W 122°22'0 0.0
2014-Oct-24 15:32N 37°55' W 122°22'0 0.0
2014-Oct-24 14:32N 37°55' W 122°22'0 0.0
2014-Oct-24 13:32N 37°55' W 122°22'0 0.0
2014-Oct-24 12:32N 37°55' W 122°22'0 0.0
2014-Oct-24 11:29N 37°55' W 122°22'1 1.1
2014-Oct-24 10:34N 37°54' W 122°23'6 5.8
2014-Oct-24 09:34N 37°60' W 122°25'6 5.9
2014-Oct-24 08:33N 38°03' W 122°18'2 0.1
2014-Oct-23 05:21N 38°03' W 122°16'0 0.0
2014-Oct-23 04:31N 38°03' W 122°16'2 2.0
2014-Oct-23 03:33N 38°03' W 122°18'5 4.6
2014-Oct-23 02:33N 38°01' W 122°23'6 5.8
2014-Oct-23 01:33N 37°56' W 122°25'7 6.8
2014-Oct-23 00:33N 37°49' W 122°23'3 3.2
2014-Oct-22 23:33N 37°46' W 122°21'0 0.1
2014-Oct-22 22:33N 37°46' W 122°21'0 0.0
2014-Oct-22 21:33N 37°46' W 122°21'1 1.0
2014-Oct-22 20:33N 37°47' W 122°21'3 3.1
2014-Oct-22 19:31N 37°48' W 122°17'0 0.0
2014-Oct-22 18:31N 37°48' W 122°17'0 0.0
2014-Oct-22 17:31N 37°48' W 122°17'0 0.0
2014-Oct-22 16:31N 37°48' W 122°17'0 0.0
2014-Oct-22 15:31N 37°48' W 122°17'0 0.0
2014-Oct-22 14:32N 37°48' W 122°17'1 1.1
2014-Oct-22 13:26N 37°48' W 122°19'0 0.0
2014-Oct-22 12:32N 37°48' W 122°19'0 0.0
2014-Oct-22 11:26N 37°48' W 122°19'0 0.1
2014-Oct-22 10:33N 37°48' W 122°19'2 2.3
2014-Oct-22 09:33N 37°46' W 122°21'0 0.0
2014-Oct-22 08:33N 37°46' W 122°21'0 0.2
2014-Oct-22 07:33N 37°46' W 122°21'0 0.0
2014-Oct-22 06:33N 37°46' W 122°21'0 0.0
2014-Oct-22 05:33N 37°46' W 122°21'0 0.0
2014-Oct-22 04:33N 37°46' W 122°21'0 0.0
2014-Oct-22 03:33N 37°46' W 122°21'0 0.0
2014-Oct-22 02:33N 37°46' W 122°21'0 0.0
2014-Oct-22 01:33N 37°46' W 122°21'2 1.6
2014-Oct-22 00:33N 37°47' W 122°22'7 6.6
2014-Oct-21 23:33N 37°53' W 122°25'3 2.6
2014-Oct-21 22:33N 37°55' W 122°22'0 0.0
2014-Oct-21 21:33N 37°55' W 122°22'0 0.0
2014-Oct-21 20:33N 37°55' W 122°22'0 0.0
2014-Oct-21 19:33N 37°55' W 122°22'0 0.0
2014-Oct-21 18:33N 37°55' W 122°22'0 0.0
2014-Oct-21 17:33N 37°55' W 122°22'0 0.0
2014-Oct-21 16:33N 37°55' W 122°22'0 0.0
2014-Oct-21 15:32N 37°55' W 122°22'0 0.0
2014-Oct-21 14:33N 37°55' W 122°22'0 0.0
2014-Oct-21 13:33N 37°55' W 122°22'0 0.0
2014-Oct-21 12:33N 37°55' W 122°22'0 0.2
2014-Oct-21 11:33N 37°55' W 122°22'4 3.9
2014-Oct-21 10:33N 37°51' W 122°23'3 3.0
2014-Oct-21 09:28N 37°49' W 122°20'0 0.0
2014-Oct-21 08:28N 37°49' W 122°20'0 0.0
2014-Oct-21 07:31N 37°49' W 122°20'0 0.0
2014-Oct-21 06:31N 37°49' W 122°20'0 0.0
2014-Oct-21 05:31N 37°49' W 122°20'0 0.0
2014-Oct-21 04:31N 37°49' W 122°20'0 0.0
2014-Oct-21 03:31N 37°49' W 122°20'0 0.0
2014-Oct-21 02:31N 37°49' W 122°20'0 0.0
2014-Oct-21 01:31N 37°49' W 122°20'1 1.2
2014-Oct-21 00:33N 37°49' W 122°21'6 5.8
2014-Oct-20 23:34N 37°54' W 122°25'2 2.1
2014-Oct-20 22:31N 37°55' W 122°22'0 0.0
2014-Oct-20 21:31N 37°55' W 122°22'0 0.0
2014-Oct-20 20:31N 37°55' W 122°22'0 0.0
2014-Oct-20 19:34N 37°55' W 122°22'0 0.0
2014-Oct-20 17:30N 37°55' W 122°22'0 0.0
2014-Oct-20 16:06N 37°55' W 122°22'0 0.0
2014-Oct-20 15:27N 37°55' W 122°22'0 0.0
2014-Oct-20 14:33N 37°55' W 122°22'0 0.0
2014-Oct-20 13:33N 37°55' W 122°22'0 0.0
2014-Oct-20 12:33N 37°55' W 122°22'3 3.2
2014-Oct-20 11:33N 37°52' W 122°24'8 7.5
2014-Oct-20 10:33N 37°48' W 122°17'0 0.0
2014-Oct-20 09:31N 37°48' W 122°17'0 0.0
2014-Oct-20 08:31N 37°48' W 122°17'0 0.0
2014-Oct-20 07:31N 37°48' W 122°17'0 0.0
2014-Oct-20 06:31N 37°48' W 122°17'0 0.0
2014-Oct-20 05:31N 37°48' W 122°17'0 0.0
2014-Oct-20 04:31N 37°48' W 122°17'0 0.0
2014-Oct-20 03:31N 37°48' W 122°17'0 0.0
2014-Oct-20 02:34N 37°48' W 122°17'3 3.2
2014-Oct-20 01:33N 37°46' W 122°21'2 1.5
2014-Oct-20 00:30N 37°44' W 122°21'0 0.2
2014-Oct-19 23:27N 37°44' W 122°21'0 0.1
2014-Oct-19 22:33N 37°45' W 122°21'0 0.0
2014-Oct-19 21:33N 37°45' W 122°21'0 0.0
2014-Oct-19 20:33N 37°45' W 122°21'1 0.5
2014-Oct-19 19:33N 37°45' W 122°21'4 3.8
2014-Oct-19 18:31N 37°48' W 122°17'0 0.0
2014-Oct-19 17:31N 37°48' W 122°17'0 0.0
2014-Oct-19 16:28N 37°48' W 122°17'0 0.0
2014-Oct-19 15:28N 37°48' W 122°17'0 0.0
2014-Oct-19 14:31N 37°48' W 122°17'0 0.0
2014-Oct-19 13:31N 37°48' W 122°17'0 0.0
2014-Oct-19 12:34N 37°48' W 122°17'0 0.0
2014-Oct-19 11:34N 37°48' W 122°17'0 0.0
2014-Oct-19 10:33N 37°48' W 122°17'0 0.0
2014-Oct-19 09:33N 37°48' W 122°17'0 0.0
2014-Oct-19 08:33N 37°48' W 122°17'0 0.0
2014-Oct-19 07:33N 37°48' W 122°17'0 0.0
2014-Oct-19 06:33N 37°48' W 122°17'0 0.0
2014-Oct-19 05:33N 37°48' W 122°17'0 0.0
2014-Oct-19 04:33N 37°48' W 122°17'0 0.0
2014-Oct-19 03:33N 37°48' W 122°17'0 0.0
2014-Oct-19 02:33N 37°48' W 122°17'0 0.0
2014-Oct-19 01:33N 37°48' W 122°17'2 2.1
2014-Oct-19 00:34N 37°48' W 122°20'2 1.7
2014-Oct-18 23:30N 37°46' W 122°20'0 0.1
2014-Oct-18 22:33N 37°46' W 122°20'1 0.8
2014-Oct-18 21:33N 37°47' W 122°21'1 1.1
2014-Oct-18 20:34N 37°47' W 122°22'2 1.8
2014-Oct-18 19:33N 37°48' W 122°24'0 0.0
2014-Oct-18 18:33N 37°48' W 122°24'0 0.0
2014-Oct-18 17:34N 37°48' W 122°24'0 0.0
2014-Oct-18 16:34N 37°48' W 122°24'0 0.3
2014-Oct-18 15:34N 37°48' W 122°24'4 3.6
2014-Oct-18 14:33N 37°49' W 122°19'0 0.0
2014-Oct-18 13:31N 37°49' W 122°19'0 0.0
2014-Oct-18 12:31N 37°49' W 122°19'0 0.0
2014-Oct-18 11:31N 37°49' W 122°19'0 0.0
2014-Oct-18 10:31N 37°49' W 122°19'0 0.0
2014-Oct-18 09:31N 37°49' W 122°19'0 0.0
2014-Oct-18 08:31N 37°49' W 122°19'0 0.0
2014-Oct-18 07:31N 37°49' W 122°19'0 0.0
2014-Oct-18 06:31N 37°49' W 122°19'0 0.0
2014-Oct-18 05:33N 37°49' W 122°19'1 1.4
2014-Oct-18 04:34N 37°48' W 122°21'3 2.7
2014-Oct-18 03:32N 37°48' W 122°17'0 0.0
2014-Oct-18 02:32N 37°48' W 122°17'0 0.0
2014-Oct-18 01:33N 37°48' W 122°17'0 0.0
2014-Oct-18 00:33N 37°48' W 122°17'0 0.0
2014-Oct-17 23:33N 37°48' W 122°17'0 0.0
2014-Oct-17 22:33N 37°48' W 122°17'0 0.0
2014-Oct-17 21:33N 37°48' W 122°17'0 0.0
2014-Oct-17 20:33N 37°48' W 122°17'0 0.0
2014-Oct-17 19:33N 37°48' W 122°17'0 0.0
2014-Oct-17 18:33N 37°48' W 122°17'0 0.0
2014-Oct-17 17:33N 37°48' W 122°17'0 0.0
2014-Oct-17 16:33N 37°48' W 122°17'0 0.0
2014-Oct-17 15:33N 37°48' W 122°17'0 0.0
2014-Oct-17 14:33N 37°48' W 122°17'0 0.0
2014-Oct-17 13:33N 37°48' W 122°17'0 0.0
2014-Oct-17 12:33N 37°48' W 122°17'0 0.0
2014-Oct-17 11:33N 37°48' W 122°17'0 0.0
2014-Oct-17 10:33N 37°48' W 122°17'0 0.0
2014-Oct-17 09:33N 37°48' W 122°17'0 0.0
2014-Oct-17 08:33N 37°48' W 122°17'0 0.0
2014-Oct-17 07:33N 37°48' W 122°17'0 0.0
2014-Oct-17 06:33N 37°48' W 122°17'2 1.8
2014-Oct-17 05:33N 37°48' W 122°19'6 5.5
2014-Oct-17 04:33N 37°52' W 122°24'3 3.3
2014-Oct-17 03:33N 37°55' W 122°22'0 0.0
2014-Oct-17 02:33N 37°55' W 122°22'0 0.0
2014-Oct-17 01:33N 37°55' W 122°22'0 0.0
2014-Oct-17 00:33N 37°55' W 122°22'0 0.0
2014-Oct-16 23:33N 37°55' W 122°22'0 0.0
2014-Oct-16 22:33N 37°55' W 122°22'0 0.0
2014-Oct-16 21:33N 37°55' W 122°22'0 0.0
2014-Oct-16 20:33N 37°55' W 122°22'0 0.0
2014-Oct-16 19:33N 37°55' W 122°22'0 0.0
2014-Oct-16 18:33N 37°55' W 122°22'0 0.0
2014-Oct-16 17:33N 37°55' W 122°22'0 0.0
2014-Oct-16 16:33N 37°55' W 122°22'0 0.0
2014-Oct-16 15:33N 37°55' W 122°22'0 0.0
2014-Oct-16 14:33N 37°55' W 122°22'0 0.0
2014-Oct-16 13:33N 37°55' W 122°22'0 0.0
2014-Oct-16 12:33N 37°55' W 122°22'0 0.0
2014-Oct-16 11:33N 37°55' W 122°22'0 0.0
2014-Oct-16 10:33N 37°55' W 122°22'0 0.0
2014-Oct-16 09:33N 37°55' W 122°22'0 0.0
2014-Oct-16 08:34N 37°55' W 122°22'0 0.0
2014-Oct-16 07:33N 37°55' W 122°22'0 0.0
2014-Oct-16 06:33N 37°55' W 122°22'0 0.0
2014-Oct-16 05:33N 37°55' W 122°22'  
Track history (hours):
 
Tides and Currents Weather Stations Pressure Air Temp Water Temp Dewpoint Dewpoint Depression Visibility Wind Speed Wind Dir Waves Ship Positions

Royal Melbourne

Owner: Harley Marine Services, Inc, Seattle, WA. More information available from US FCC via Universal Licensing System and Coast Guard Vessel Documentation Center.

Last reported at 2014-Oct-26 04:34 UTC. Time now 2014-Oct-26 05:16 UTC.
Position N 37°48' W 122°17'.

Length 30 m; draft 2 m.

Type: Tug. MMSI: 366998830.

Date/timePositionNaut miles runAvg speedWind from/ knotsBaromVisibWave heightAir tempDewpointWater temp
2014-Oct-26 04:34N 37°48' W 122°17'0 0.0
2014-Oct-26 03:34N 37°48' W 122°17'0 0.0
2014-Oct-26 02:33N 37°48' W 122°17'0 0.0
2014-Oct-26 01:33N 37°48' W 122°17'0 0.0
2014-Oct-26 00:33N 37°48' W 122°17'0 0.0
2014-Oct-25 23:33N 37°48' W 122°17'0 0.0
2014-Oct-25 22:33N 37°48' W 122°17'4 3.6
2014-Oct-25 21:33N 37°48' W 122°21'2 2.0
2014-Oct-25 20:31N 37°48' W 122°24'0 0.0
2014-Oct-25 19:31N 37°48' W 122°24'0 0.0
2014-Oct-25 18:31N 37°48' W 122°24'0 0.0
2014-Oct-25 17:33N 37°48' W 122°24'2 1.6
2014-Oct-25 16:33N 37°48' W 122°22'4 3.8
2014-Oct-25 15:31N 37°48' W 122°17'0 0.0
2014-Oct-25 14:31N 37°48' W 122°17'0 0.0
2014-Oct-25 13:31N 37°48' W 122°17'0 0.0
2014-Oct-25 12:31N 37°48' W 122°17'0 0.0
2014-Oct-25 11:31N 37°48' W 122°17'0 0.0
2014-Oct-25 10:31N 37°48' W 122°17'0 0.0
2014-Oct-25 09:34N 37°48' W 122°17'3 3.3
2014-Oct-25 08:34N 37°46' W 122°20'0 0.3
2014-Oct-25 07:32N 37°45' W 122°20'0 0.0
2014-Oct-25 06:32N 37°45' W 122°20'0 0.0
2014-Oct-25 05:33N 37°45' W 122°20'1 0.6
2014-Oct-25 04:33N 37°45' W 122°20'0 0.2
2014-Oct-25 03:34N 37°45' W 122°20'0 0.0
2014-Oct-25 02:34N 37°45' W 122°20'4 3.5
2014-Oct-25 01:34N 37°48' W 122°17'0 0.1
2014-Oct-25 00:33N 37°48' W 122°17'0 0.0
2014-Oct-24 23:33N 37°48' W 122°17'0 0.2
2014-Oct-24 22:33N 37°48' W 122°17'6 6.1
2014-Oct-24 21:33N 37°51' W 122°23'4 3.7
2014-Oct-24 20:32N 37°55' W 122°22'0 0.0
2014-Oct-24 19:32N 37°55' W 122°22'0 0.0
2014-Oct-24 18:32N 37°55' W 122°22'0 0.0
2014-Oct-24 17:32N 37°55' W 122°22'0 0.0
2014-Oct-24 16:32N 37°55' W 122°22'0 0.0
2014-Oct-24 15:32N 37°55' W 122°22'0 0.0
2014-Oct-24 14:32N 37°55' W 122°22'0 0.0
2014-Oct-24 13:32N 37°55' W 122°22'0 0.0
2014-Oct-24 12:32N 37°55' W 122°22'0 0.0
2014-Oct-24 11:29N 37°55' W 122°22'1 1.1
2014-Oct-24 10:34N 37°54' W 122°23'6 5.8
2014-Oct-24 09:34N 37°60' W 122°25'6 5.9
2014-Oct-24 08:33N 38°03' W 122°18'2 0.1
2014-Oct-23 05:21N 38°03' W 122°16'0 0.0
2014-Oct-23 04:31N 38°03' W 122°16'2 2.0
2014-Oct-23 03:33N 38°03' W 122°18'5 4.6
2014-Oct-23 02:33N 38°01' W 122°23'6 5.8
2014-Oct-23 01:33N 37°56' W 122°25'7 6.8
2014-Oct-23 00:33N 37°49' W 122°23'3 3.2
2014-Oct-22 23:33N 37°46' W 122°21'0 0.1
2014-Oct-22 22:33N 37°46' W 122°21'0 0.0
2014-Oct-22 21:33N 37°46' W 122°21'1 1.0
2014-Oct-22 20:33N 37°47' W 122°21'3 3.1
2014-Oct-22 19:31N 37°48' W 122°17'0 0.0
2014-Oct-22 18:31N 37°48' W 122°17'0 0.0
2014-Oct-22 17:31N 37°48' W 122°17'0 0.0
2014-Oct-22 16:31N 37°48' W 122°17'0 0.0
2014-Oct-22 15:31N 37°48' W 122°17'0 0.0
2014-Oct-22 14:32N 37°48' W 122°17'1 1.1
2014-Oct-22 13:26N 37°48' W 122°19'0 0.0
2014-Oct-22 12:32N 37°48' W 122°19'0 0.0
2014-Oct-22 11:26N 37°48' W 122°19'0 0.1
2014-Oct-22 10:33N 37°48' W 122°19'2 2.3
2014-Oct-22 09:33N 37°46' W 122°21'0 0.0
2014-Oct-22 08:33N 37°46' W 122°21'0 0.2
2014-Oct-22 07:33N 37°46' W 122°21'0 0.0
2014-Oct-22 06:33N 37°46' W 122°21'0 0.0
2014-Oct-22 05:33N 37°46' W 122°21'0 0.0
2014-Oct-22 04:33N 37°46' W 122°21'0 0.0
2014-Oct-22 03:33N 37°46' W 122°21'0 0.0
2014-Oct-22 02:33N 37°46' W 122°21'0 0.0
2014-Oct-22 01:33N 37°46' W 122°21'2 1.6
2014-Oct-22 00:33N 37°47' W 122°22'7 6.6
2014-Oct-21 23:33N 37°53' W 122°25'3 2.6
2014-Oct-21 22:33N 37°55' W 122°22'0 0.0
2014-Oct-21 21:33N 37°55' W 122°22'0 0.0
2014-Oct-21 20:33N 37°55' W 122°22'0 0.0
2014-Oct-21 19:33N 37°55' W 122°22'0 0.0
2014-Oct-21 18:33N 37°55' W 122°22'0 0.0
2014-Oct-21 17:33N 37°55' W 122°22'0 0.0
2014-Oct-21 16:33N 37°55' W 122°22'0 0.0
2014-Oct-21 15:32N 37°55' W 122°22'0 0.0
2014-Oct-21 14:33N 37°55' W 122°22'0 0.0
2014-Oct-21 13:33N 37°55' W 122°22'0 0.0
2014-Oct-21 12:33N 37°55' W 122°22'0 0.2
2014-Oct-21 11:33N 37°55' W 122°22'4 3.9
2014-Oct-21 10:33N 37°51' W 122°23'3 3.0
2014-Oct-21 09:28N 37°49' W 122°20'0 0.0
2014-Oct-21 08:28N 37°49' W 122°20'0 0.0
2014-Oct-21 07:31N 37°49' W 122°20'0 0.0
2014-Oct-21 06:31N 37°49' W 122°20'0 0.0
2014-Oct-21 05:31N 37°49' W 122°20'0 0.0
2014-Oct-21 04:31N 37°49' W 122°20'0 0.0
2014-Oct-21 03:31N 37°49' W 122°20'0 0.0
2014-Oct-21 02:31N 37°49' W 122°20'0 0.0
2014-Oct-21 01:31N 37°49' W 122°20'1 1.2
2014-Oct-21 00:33N 37°49' W 122°21'6 5.8
2014-Oct-20 23:34N 37°54' W 122°25'2 2.1
2014-Oct-20 22:31N 37°55' W 122°22'0 0.0
2014-Oct-20 21:31N 37°55' W 122°22'0 0.0
2014-Oct-20 20:31N 37°55' W 122°22'0 0.0
2014-Oct-20 19:34N 37°55' W 122°22'0 0.0
2014-Oct-20 17:30N 37°55' W 122°22'0 0.0
2014-Oct-20 16:06N 37°55' W 122°22'0 0.0
2014-Oct-20 15:27N 37°55' W 122°22'0 0.0
2014-Oct-20 14:33N 37°55' W 122°22'0 0.0
2014-Oct-20 13:33N 37°55' W 122°22'0 0.0
2014-Oct-20 12:33N 37°55' W 122°22'3 3.2
2014-Oct-20 11:33N 37°52' W 122°24'8 7.5
2014-Oct-20 10:33N 37°48' W 122°17'0 0.0
2014-Oct-20 09:31N 37°48' W 122°17'0 0.0
2014-Oct-20 08:31N 37°48' W 122°17'0 0.0
2014-Oct-20 07:31N 37°48' W 122°17'0 0.0
2014-Oct-20 06:31N 37°48' W 122°17'0 0.0
2014-Oct-20 05:31N 37°48' W 122°17'0 0.0
2014-Oct-20 04:31N 37°48' W 122°17'0 0.0
2014-Oct-20 03:31N 37°48' W 122°17'0 0.0
2014-Oct-20 02:34N 37°48' W 122°17'3 3.2
2014-Oct-20 01:33N 37°46' W 122°21'2 1.5
2014-Oct-20 00:30N 37°44' W 122°21'0 0.2
2014-Oct-19 23:27N 37°44' W 122°21'0 0.1
2014-Oct-19 22:33N 37°45' W 122°21'0 0.0
2014-Oct-19 21:33N 37°45' W 122°21'0 0.0
2014-Oct-19 20:33N 37°45' W 122°21'1 0.5
2014-Oct-19 19:33N 37°45' W 122°21'4 3.8
2014-Oct-19 18:31N 37°48' W 122°17'0 0.0
2014-Oct-19 17:31N 37°48' W 122°17'0 0.0
2014-Oct-19 16:28N 37°48' W 122°17'0 0.0
2014-Oct-19 15:28N 37°48' W 122°17'0 0.0
2014-Oct-19 14:31N 37°48' W 122°17'0 0.0
2014-Oct-19 13:31N 37°48' W 122°17'0 0.0
2014-Oct-19 12:34N 37°48' W 122°17'0 0.0
2014-Oct-19 11:34N 37°48' W 122°17'0 0.0
2014-Oct-19 10:33N 37°48' W 122°17'0 0.0
2014-Oct-19 09:33N 37°48' W 122°17'0 0.0
2014-Oct-19 08:33N 37°48' W 122°17'0 0.0
2014-Oct-19 07:33N 37°48' W 122°17'0 0.0
2014-Oct-19 06:33N 37°48' W 122°17'0 0.0
2014-Oct-19 05:33N 37°48' W 122°17'0 0.0
2014-Oct-19 04:33N 37°48' W 122°17'0 0.0
2014-Oct-19 03:33N 37°48' W 122°17'0 0.0
2014-Oct-19 02:33N 37°48' W 122°17'0 0.0
2014-Oct-19 01:33N 37°48' W 122°17'2 2.1
2014-Oct-19 00:34N 37°48' W 122°20'2 1.7
2014-Oct-18 23:30N 37°46' W 122°20'0 0.1
2014-Oct-18 22:33N 37°46' W 122°20'1 0.8
2014-Oct-18 21:33N 37°47' W 122°21'1 1.1
2014-Oct-18 20:34N 37°47' W 122°22'2 1.8
2014-Oct-18 19:33N 37°48' W 122°24'0 0.0
2014-Oct-18 18:33N 37°48' W 122°24'0 0.0
2014-Oct-18 17:34N 37°48' W 122°24'0 0.0
2014-Oct-18 16:34N 37°48' W 122°24'0 0.3
2014-Oct-18 15:34N 37°48' W 122°24'4 3.6
2014-Oct-18 14:33N 37°49' W 122°19'0 0.0
2014-Oct-18 13:31N 37°49' W 122°19'0 0.0
2014-Oct-18 12:31N 37°49' W 122°19'0 0.0
2014-Oct-18 11:31N 37°49' W 122°19'0 0.0
2014-Oct-18 10:31N 37°49' W 122°19'0 0.0
2014-Oct-18 09:31N 37°49' W 122°19'0 0.0
2014-Oct-18 08:31N 37°49' W 122°19'0 0.0
2014-Oct-18 07:31N 37°49' W 122°19'0 0.0
2014-Oct-18 06:31N 37°49' W 122°19'0 0.0
2014-Oct-18 05:33N 37°49' W 122°19'1 1.4
2014-Oct-18 04:34N 37°48' W 122°21'3 2.7
2014-Oct-18 03:32N 37°48' W 122°17'0 0.0
2014-Oct-18 02:32N 37°48' W 122°17'0 0.0
2014-Oct-18 01:33N 37°48' W 122°17'0 0.0
2014-Oct-18 00:33N 37°48' W 122°17'0 0.0
2014-Oct-17 23:33N 37°48' W 122°17'0 0.0
2014-Oct-17 22:33N 37°48' W 122°17'0 0.0
2014-Oct-17 21:33N 37°48' W 122°17'0 0.0
2014-Oct-17 20:33N 37°48' W 122°17'0 0.0
2014-Oct-17 19:33N 37°48' W 122°17'0 0.0
2014-Oct-17 18:33N 37°48' W 122°17'0 0.0
2014-Oct-17 17:33N 37°48' W 122°17'0 0.0
2014-Oct-17 16:33N 37°48' W 122°17'0 0.0
2014-Oct-17 15:33N 37°48' W 122°17'0 0.0
2014-Oct-17 14:33N 37°48' W 122°17'0 0.0
2014-Oct-17 13:33N 37°48' W 122°17'0 0.0
2014-Oct-17 12:33N 37°48' W 122°17'0 0.0
2014-Oct-17 11:33N 37°48' W 122°17'0 0.0
2014-Oct-17 10:33N 37°48' W 122°17'0 0.0
2014-Oct-17 09:33N 37°48' W 122°17'0 0.0
2014-Oct-17 08:33N 37°48' W 122°17'0 0.0
2014-Oct-17 07:33N 37°48' W 122°17'0 0.0
2014-Oct-17 06:33N 37°48' W 122°17'2 1.8
2014-Oct-17 05:33N 37°48' W 122°19'6 5.5
2014-Oct-17 04:33N 37°52' W 122°24'3 3.3
2014-Oct-17 03:33N 37°55' W 122°22'0 0.0
2014-Oct-17 02:33N 37°55' W 122°22'0 0.0
2014-Oct-17 01:33N 37°55' W 122°22'0 0.0
2014-Oct-17 00:33N 37°55' W 122°22'0 0.0
2014-Oct-16 23:33N 37°55' W 122°22'0 0.0
2014-Oct-16 22:33N 37°55' W 122°22'0 0.0
2014-Oct-16 21:33N 37°55' W 122°22'0 0.0
2014-Oct-16 20:33N 37°55' W 122°22'0 0.0
2014-Oct-16 19:33N 37°55' W 122°22'0 0.0
2014-Oct-16 18:33N 37°55' W 122°22'0 0.0
2014-Oct-16 17:33N 37°55' W 122°22'0 0.0
2014-Oct-16 16:33N 37°55' W 122°22'0 0.0
2014-Oct-16 15:33N 37°55' W 122°22'0 0.0
2014-Oct-16 14:33N 37°55' W 122°22'0 0.0
2014-Oct-16 13:33N 37°55' W 122°22'0 0.0
2014-Oct-16 12:33N 37°55' W 122°22'0 0.0
2014-Oct-16 11:33N 37°55' W 122°22'0 0.0
2014-Oct-16 10:33N 37°55' W 122°22'0 0.0
2014-Oct-16 09:33N 37°55' W 122°22'0 0.0
2014-Oct-16 08:34N 37°55' W 122°22'0 0.0
2014-Oct-16 07:33N 37°55' W 122°22'0 0.0
2014-Oct-16 06:33N 37°55' W 122°22'0 0.0
2014-Oct-16 05:33N 37°55' W 122°22'  

Dump ship's entire track history